Time;durP1;ratioP1;P1;durP2;ratioP2;P2;SDS_P1;SDS_P2;PMS_P1;PMS_P2;Temp;Humidity;BMP_temperature;BMP_pressure;BME280_temperature;BME280_humidity;BME280_pressure;Samples;Min_cycle;Max_cycle;Signal;HPM_P1;HPM_P2
2022/08/31 00:05:05;;;;;;;22.63;7.40;;;;;;;18.62;79.18;97522.63;5047326;28;20037;-63
2022/08/31 00:07:33;;;;;;;11.45;5.75;;;;;;;17.95;84.25;97528.06;5047564;28;20103;-63
2022/08/31 00:10:02;;;;;;;;;;;;;;;17.44;89.06;97513.97;5047631;28;20056;-63
2022/08/31 00:12:29;;;;;;;;;;;;;;;17.05;97.42;97513.06;5046986;28;19974;-64
2022/08/31 00:14:56;;;;;;;;;;;;;;;16.74;100.00;97522.38;5052238;28;19924;-64
2022/08/31 00:17:22;;;;;;;14.60;7.70;;;;;;;16.58;100.00;97516.25;5060834;28;20031;-64
2022/08/31 00:19:49;;;;;;;16.63;8.40;;;;;;;16.46;100.00;97511.16;5047146;28;20045;-64
2022/08/31 00:22:15;;;;;;;16.20;9.10;;;;;;;16.47;100.00;97520.19;5047021;28;20556;-64
2022/08/31 00:24:42;;;;;;;16.13;9.77;;;;;;;16.24;100.00;97517.09;5047242;28;20045;-63
2022/08/31 00:27:08;;;;;;;17.10;8.70;;;;;;;16.20;100.00;97525.03;5045995;28;20047;-63
2022/08/31 00:29:35;;;;;;;;;;;;;;;16.17;100.00;97519.31;5047154;28;20118;-64
2022/08/31 00:32:01;;;;;;;;;;;;;;;16.14;100.00;97517.97;5047970;28;19933;-64
2022/08/31 00:34:29;;;;;;;;;;;;;;;16.12;100.00;97521.00;5047199;28;19932;-64
2022/08/31 00:36:55;;;;;;;;;;;;;;;16.09;100.00;97521.56;5047278;28;19921;-64
2022/08/31 00:39:22;;;;;;;;;;;;;;;16.03;100.00;97519.97;5047347;28;19920;-62
2022/08/31 00:41:48;;;;;;;;;;;;;;;15.98;100.00;97533.66;5046954;28;19925;-64
2022/08/31 00:44:15;;;;;;;;;;;;;;;15.87;100.00;97530.16;5047598;28;19927;-65
2022/08/31 00:46:43;;;;;;;17.08;10.45;;;;;;;15.67;100.00;97529.16;5061395;28;20414;-65
2022/08/31 00:49:18;;;;;;;17.05;10.40;;;;;;;15.64;100.00;97537.94;5066932;28;20450;-65
2022/08/31 00:51:47;;;;;;;15.15;11.45;;;;;;;15.56;100.00;97539.31;5065622;28;20059;-65
2022/08/31 00:54:19;;;;;;;13.65;10.38;;;;;;;15.53;100.00;97529.00;5026576;28;20052;-66
2022/08/31 00:56:46;;;;;;;14.82;9.85;;;;;;;15.49;100.00;97533.38;5036846;28;20049;-65
2022/08/31 00:59:15;;;;;;;12.80;9.93;;;;;;;15.50;100.00;97526.00;5044561;28;20053;-66
2022/08/31 01:01:42;;;;;;;14.25;9.00;;;;;;;15.51;100.00;97522.19;5046235;28;20040;-64
2022/08/31 01:04:08;;;;;;;14.07;9.32;;;;;;;15.51;100.00;97520.25;5046367;28;20504;-66
2022/08/31 01:06:36;;;;;;;15.00;9.73;;;;;;;15.45;100.00;97519.47;5038913;28;20044;-65
2022/08/31 01:09:05;;;;;;;14.13;9.68;;;;;;;15.45;100.00;97513.19;5044013;28;20037;-65
2022/08/31 01:11:35;;;;;;;11.68;9.32;;;;;;;15.40;100.00;97511.31;5041775;28;20642;-66
2022/08/31 01:14:01;;;;;;;16.25;10.40;;;;;;;15.40;100.00;97516.75;5046580;28;20056;-66
2022/08/31 01:16:41;;;;;;;14.35;10.27;;;;;;;15.41;100.00;97517.59;5062453;28;20477;-65
2022/08/31 01:19:57;;;;;;;22.70;10.45;;;;;;;15.40;100.00;97524.94;5052677;28;20087;-65
2022/08/31 01:22:36;;;;;;;13.43;9.38;;;;;;;15.44;100.00;97517.84;5022984;28;20333;-66
2022/08/31 01:25:04;;;;;;;13.80;9.32;;;;;;;15.51;100.00;97520.25;5023367;28;20574;-65
2022/08/31 01:27:33;;;;;;;15.68;10.48;;;;;;;15.56;100.00;97516.69;5037529;28;20063;-65
2022/08/31 01:30:02;;;;;;;13.70;8.88;;;;;;;15.57;100.00;97518.31;5044728;28;20114;-65
2022/08/31 01:32:28;;;;;;;14.07;8.70;;;;;;;15.58;100.00;97515.31;5044794;28;20072;-66
2022/08/31 01:34:55;;;;;;;12.35;7.28;;;;;;;15.69;100.00;97504.31;5044623;28;20099;-66
2022/08/31 01:37:22;;;;;;;12.32;7.80;;;;;;;15.66;100.00;97497.53;5045874;28;20071;-66
2022/08/31 01:39:55;;;;;;;16.88;8.63;;;;;;;15.60;100.00;97494.00;5045989;28;20041;-65
2022/08/31 01:42:21;;;;;;;12.65;8.88;;;;;;;15.57;100.00;97500.03;5045552;28;20527;-66
2022/08/31 01:44:56;;;;;;;12.98;8.63;;;;;;;15.60;100.00;97501.38;5049383;28;20040;-65
2022/08/31 01:47:22;;;;;;;12.60;7.85;;;;;;;15.60;100.00;97504.91;5075095;28;20048;-66
2022/08/31 01:49:50;;;;;;;12.15;8.38;;;;;;;15.65;100.00;97515.00;5045777;28;20048;-65
2022/08/31 01:52:18;;;;;;;12.43;8.20;;;;;;;15.55;100.00;97517.81;5043948;28;20476;-65
2022/08/31 01:54:45;;;;;;;11.90;8.63;;;;;;;15.51;100.00;97522.19;5043194;28;20048;-66
2022/08/31 01:57:14;;;;;;;12.73;8.80;;;;;;;15.57;100.00;97521.88;5045787;28;20539;-66
2022/08/31 02:00:07;;;;;;;14.05;8.93;;;;;;;15.56;100.00;97524.88;5043947;28;20060;-65
2022/08/31 02:02:41;;;;;;;12.82;8.70;;;;;;;15.51;100.00;97528.44;5043870;28;20550;-65
2022/08/31 02:05:09;;;;;;;12.02;9.43;;;;;;;15.48;100.00;97532.53;5042944;28;20040;-66
2022/08/31 02:07:36;;;;;;;12.75;9.25;;;;;;;15.47;100.00;97530.09;5043479;28;20064;-66
2022/08/31 02:10:04;;;;;;;15.50;9.57;;;;;;;15.46;100.00;97537.47;5045009;28;20067;-65
2022/08/31 02:12:30;;;;;;;12.98;9.82;;;;;;;15.44;100.00;97531.47;5043595;28;20139;-65
2022/08/31 02:14:57;;;;;;;14.80;10.30;;;;;;;15.45;100.00;97532.31;5048649;28;20044;-65
2022/08/31 02:17:24;;;;;;;11.90;9.20;;;;;;;15.47;100.00;97539.09;5058840;28;20049;-65
2022/08/31 02:19:50;;;;;;;12.73;9.07;;;;;;;15.48;100.00;97532.53;5044119;28;20455;-66
2022/08/31 02:22:17;;;;;;;12.75;9.38;;;;;;;15.53;100.00;97534.44;5043944;28;20413;-65
2022/08/31 02:24:43;;;;;;;10.75;8.48;;;;;;;15.54;100.00;97532.50;5043172;28;20049;-65
2022/08/31 02:27:10;;;;;;;11.73;8.73;;;;;;;15.40;100.00;97533.13;5044778;28;20041;-65
2022/08/31 02:29:36;;;;;;;12.88;10.23;;;;;;;15.42;100.00;97528.22;5044107;28;20049;-66
2022/08/31 02:32:03;;;;;;;12.25;9.93;;;;;;;15.34;100.00;97529.59;5045026;28;20040;-65
2022/08/31 02:34:30;;;;;;;13.52;9.68;;;;;;;15.32;100.00;97534.53;5043338;28;20045;-64
2022/08/31 02:36:57;;;;;;;13.07;9.35;;;;;;;15.32;100.00;97533.72;5042925;28;20045;-66
2022/08/31 02:39:24;;;;;;;13.27;9.13;;;;;;;15.33;100.00;97529.88;5049021;28;20049;-65
2022/08/31 02:41:53;;;;;;;14.05;9.27;;;;;;;15.36;100.00;97520.34;5047093;28;20045;-66
2022/08/31 02:44:20;;;;;;;14.55;9.40;;;;;;;15.41;100.00;97525.78;5047047;28;20103;-65
2022/08/31 02:46:46;;;;;;;12.65;9.13;;;;;;;15.43;100.00;97527.13;5061702;28;20047;-65
2022/08/31 02:49:36;;;;;;;12.20;8.30;;;;;;;15.45;100.00;97522.19;5030584;28;20143;-66
2022/08/31 02:52:03;;;;;;;13.32;8.35;;;;;;;15.42;100.00;97522.75;5057432;28;20052;-64
2022/08/31 02:54:29;;;;;;;12.60;9.40;;;;;;;15.44;100.00;97522.50;5047518;28;20045;-65
2022/08/31 02:56:56;;;;;;;15.02;9.45;;;;;;;15.42;100.00;97516.47;5042733;28;20041;-65
2022/08/31 02:59:23;;;;;;;11.60;7.88;;;;;;;15.42;100.00;97525.50;5048352;28;20052;-66
2022/08/31 03:01:51;;;;;;;10.77;7.70;;;;;;;15.40;100.00;97524.94;5046228;28;20040;-65
2022/08/31 03:04:18;;;;;;;12.73;8.93;;;;;;;15.38;100.00;97520.88;5047140;28;20068;-65
2022/08/31 03:06:46;;;;;;;12.52;9.30;;;;;;;15.39;100.00;97517.03;5046816;28;20049;-65
2022/08/31 03:09:14;;;;;;;11.57;8.60;;;;;;;15.38;100.00;97520.88;5046547;28;20128;-65
2022/08/31 03:11:41;;;;;;;11.82;9.10;;;;;;;15.43;100.00;97515.38;5046991;28;20076;-65
2022/08/31 03:14:08;;;;;;;14.15;9.55;;;;;;;15.41;100.00;97518.38;5046189;28;20592;-65
2022/08/31 03:16:38;;;;;;;14.80;9.07;;;;;;;15.42;100.00;97517.31;5064448;28;20079;-65
2022/08/31 03:19:06;;;;;;;13.02;9.18;;;;;;;15.43;100.00;97513.47;5046645;28;20049;-66
2022/08/31 03:21:34;;;;;;;14.80;10.13;;;;;;;15.47;100.00;97511.00;5046659;28;20427;-65
2022/08/31 03:24:01;;;;;;;15.07;9.50;;;;;;;15.43;100.00;97509.91;5046678;28;20045;-66
2022/08/31 03:26:27;;;;;;;11.80;9.00;;;;;;;15.39;100.00;97504.22;5047799;28;20068;-66
2022/08/31 03:28:54;;;;;;;13.63;8.65;;;;;;;15.38;100.00;97496.31;5047327;28;20041;-66
2022/08/31 03:31:44;;;;;;;11.35;8.35;;;;;;;15.41;100.00;97501.22;5047609;28;20508;-65
2022/08/31 03:34:10;;;;;;;12.07;8.15;;;;;;;15.44;100.00;97503.41;5046593;28;20079;-65
2022/08/31 03:36:41;;;;;;;10.83;8.57;;;;;;;15.54;100.00;97502.50;5038588;28;20041;-66
2022/08/31 03:39:07;;;;;;;11.27;8.32;;;;;;;15.55;100.00;97507.69;5045108;28;20052;-66
2022/08/31 03:41:34;;;;;;;12.18;7.50;;;;;;;15.61;100.00;97516.66;5046291;28;20064;-66
2022/08/31 03:44:00;;;;;;;10.98;7.75;;;;;;;15.63;100.00;97508.19;5046392;28;20045;-65
2022/08/31 03:46:31;;;;;;;13.75;8.20;;;;;;;15.56;100.00;97517.50;5050731;28;20539;-66
2022/08/31 03:49:00;;;;;;;;;;;;;;;15.56;100.00;97524.88;5062977;28;20403;-65
2022/08/31 03:51:28;;;;;;;12.82;9.00;;;;;;;15.60;100.00;97529.47;5044890;28;19978;-66
2022/08/31 03:53:55;;;;;;;14.60;9.38;;;;;;;15.62;100.00;97536.59;5044229;28;20136;-65
2022/08/31 03:56:22;;;;;;;13.23;9.32;;;;;;;15.64;100.00;97540.66;5044559;28;20155;-66
2022/08/31 03:58:49;;;;;;;15.27;9.02;;;;;;;15.51;100.00;97542.09;5043291;28;20542;-66
2022/08/31 04:01:48;;;;;;;12.95;9.20;;;;;;;15.56;100.00;97539.31;5047030;28;20094;-66
2022/08/31 04:04:33;;;;;;;12.27;9.98;;;;;;;15.57;100.00;97537.41;5047057;28;20069;-66
2022/08/31 04:07:35;;;;;;;;;;;;;;;15.51;100.00;97531.16;5034061;28;20053;-64
2022/08/31 04:10:28;;;;;;;12.85;8.90;;;;;;;15.53;100.00;97530.88;5046676;28;19990;-66
2022/08/31 04:13:13;;;;;;;13.23;8.35;;;;;;;15.57;100.00;97523.78;5047455;28;20048;-66
2022/08/31 04:16:11;;;;;;;12.48;8.95;;;;;;;15.59;100.00;97527.06;5030759;28;20057;-65
2022/08/31 04:19:01;;;;;;;13.45;9.23;;;;;;;15.64;100.00;97531.66;5048807;28;20056;-66
2022/08/31 04:21:37;;;;;;;12.27;8.07;;;;;;;15.67;100.00;97531.91;5042107;28;20045;-65
2022/08/31 04:24:04;;;;;;;11.63;8.18;;;;;;;15.68;100.00;97536.28;5044276;28;20117;-65
2022/08/31 04:26:35;;;;;;;11.85;7.57;;;;;;;15.66;100.00;97533.00;5045621;28;20049;-66
2022/08/31 04:29:04;;;;;;;13.00;6.95;;;;;;;15.59;100.00;97527.06;5045098;28;20041;-63
2022/08/31 04:31:37;;;;;;;11.43;7.70;;;;;;;15.65;100.00;97530.53;5045643;28;20132;-62
2022/08/31 04:34:04;;;;;;;14.13;8.77;;;;;;;15.69;100.00;97528.88;5045502;28;20087;-64
2022/08/31 04:36:31;;;;;;;11.02;8.15;;;;;;;15.56;100.00;97531.13;5046268;28;20098;-63
2022/08/31 04:39:01;;;;;;;15.35;8.88;;;;;;;15.53;100.00;97530.88;5045205;28;20063;-64
2022/08/31 04:41:31;;;;;;;11.43;7.85;;;;;;;15.48;100.00;97538.00;5046193;28;20177;-63
2022/08/31 04:43:59;;;;;;;10.75;7.13;;;;;;;15.51;100.00;97542.09;5043031;28;20416;-65
2022/08/31 04:46:27;;;;;;;10.82;6.80;;;;;;;15.43;100.00;97534.47;5048687;28;20099;-66
2022/08/31 04:48:54;;;;;;;10.20;7.75;;;;;;;15.48;100.00;97539.91;5045076;28;20045;-65
2022/08/31 04:51:25;;;;;;;10.27;8.13;;;;;;;15.50;100.00;97550.53;5047338;28;20370;-66
2022/08/31 04:53:52;;;;;;;12.60;8.85;;;;;;;15.51;100.00;97553.00;5046352;28;20060;-65
2022/08/31 04:56:25;;;;;;;9.63;7.38;;;;;;;15.48;100.00;97559.84;5042305;28;20420;-66
2022/08/31 04:58:55;;;;;;;11.30;7.00;;;;;;;15.50;100.00;97556.84;5043248;28;20151;-62
2022/08/31 05:01:26;;;;;;;10.10;6.88;;;;;;;15.61;100.00;97563.06;5045428;28;20280;-62
2022/08/31 05:04:28;;;;;;;13.70;8.80;;;;;;;15.58;100.00;97558.97;5046343;28;20063;-62
2022/08/31 05:06:55;;;;;;;12.57;9.20;;;;;;;15.56;100.00;97565.81;5042758;28;20045;-62
2022/08/31 05:09:22;;;;;;;12.93;9.48;;;;;;;15.55;100.00;97575.09;5044889;28;20033;-62
2022/08/31 05:11:52;;;;;;;10.40;8.45;;;;;;;15.55;100.00;97575.91;5043655;28;20072;-63
2022/08/31 05:14:23;;;;;;;11.55;7.90;;;;;;;15.51;100.00;97574.81;5043151;28;20424;-63
2022/08/31 05:17:00;;;;;;;15.23;8.77;;;;;;;15.55;100.00;97575.91;5053567;28;20125;-62
2022/08/31 05:19:28;;;;;;;13.55;8.75;;;;;;;15.67;100.00;97580.22;5081718;28;20068;-63
2022/08/31 05:21:54;;;;;;;11.48;8.15;;;;;;;15.57;100.00;97581.91;5045449;28;20043;-64
2022/08/31 05:24:22;;;;;;;12.77;8.93;;;;;;;15.50;100.00;97583.28;5044585;28;20049;-62
2022/08/31 05:26:53;;;;;;;14.23;8.85;;;;;;;15.41;100.00;97591.25;5044464;28;20052;-62
2022/08/31 05:29:22;;;;;;;13.38;9.30;;;;;;;15.50;100.00;97591.47;5044621;28;20149;-62
2022/08/31 05:31:56;;;;;;;13.63;9.45;;;;;;;15.52;100.00;97589.31;5044776;28;20044;-61
2022/08/31 05:34:23;;;;;;;22.73;9.77;;;;;;;15.52;100.00;97590.09;5044786;28;20051;-63
2022/08/31 05:36:53;;;;;;;11.57;9.52;;;;;;;15.34;100.00;97589.63;5045052;28;20045;-63
2022/08/31 05:39:20;;;;;;;16.45;11.13;;;;;;;15.42;100.00;97606.53;5042439;28;20535;-62
2022/08/31 05:41:48;;;;;;;13.40;10.13;;;;;;;15.38;100.00;97603.53;5044845;28;20484;-62
2022/08/31 05:44:16;;;;;;;14.63;10.05;;;;;;;15.27;100.00;97610.13;5044130;28;20049;-62
2022/08/31 05:46:43;;;;;;;13.10;9.77;;;;;;;15.18;100.00;97610.69;5063266;28;20060;-62
2022/08/31 05:49:18;;;;;;;14.10;10.68;;;;;;;15.27;100.00;97616.41;5048952;28;20041;-62
2022/08/31 05:51:44;;;;;;;16.95;11.23;;;;;;;15.35;100.00;97620.47;5041056;28;20041;-63
2022/08/31 05:54:11;;;;;;;17.85;11.95;;;;;;;15.45;100.00;97617.69;5043489;28;20083;-63
2022/08/31 05:56:40;;;;;;;19.15;10.90;;;;;;;15.53;100.00;97616.31;5045453;28;20054;-62
2022/08/31 05:59:08;;;;;;;14.65;11.27;;;;;;;15.57;100.00;97622.03;5038778;28;20048;-62
2022/08/31 06:01:38;;;;;;;18.17;12.02;;;;;;;15.56;100.00;97623.13;5043874;28;20048;-63
2022/08/31 06:04:21;;;;;;;16.60;12.45;;;;;;;15.44;100.00;97618.78;5037162;28;20049;-62
2022/08/31 06:06:47;;;;;;;17.27;11.70;;;;;;;15.44;100.00;97624.25;5041058;28;20052;-65
2022/08/31 06:09:17;;;;;;;16.27;11.10;;;;;;;15.51;100.00;97618.50;5043007;28;20063;-65
2022/08/31 06:11:44;;;;;;;14.45;10.30;;;;;;;15.46;100.00;97626.69;5073705;28;20095;-65
2022/08/31 06:14:14;;;;;;;11.45;9.20;;;;;;;15.50;100.00;97624.22;5045203;28;20091;-65
2022/08/31 06:16:43;;;;;;;15.75;9.45;;;;;;;15.56;100.00;97626.66;5047537;28;20144;-66
2022/08/31 06:19:11;;;;;;;12.32;8.60;;;;;;;15.52;100.00;97627.50;5047399;28;20052;-65
2022/08/31 06:21:42;;;;;;;11.68;8.80;;;;;;;15.61;100.00;97628.56;5047375;28;20040;-65
2022/08/31 06:24:19;;;;;;;14.63;10.20;;;;;;;15.63;100.00;97634.56;5048184;28;20053;-64
2022/08/31 06:26:51;;;;;;;14.00;9.20;;;;;;;15.66;100.00;97644.91;5047247;28;20056;-65
2022/08/31 06:29:30;;;;;;;11.05;8.13;;;;;;;15.65;100.00;97648.75;5040258;28;20045;-65
2022/08/31 06:31:59;;;;;;;11.43;8.43;;;;;;;15.67;100.00;97645.75;5028205;28;20038;-65
2022/08/31 06:34:27;;;;;;;14.68;10.27;;;;;;;15.74;100.00;97649.78;5028144;28;20049;-65
2022/08/31 06:37:04;;;;;;;12.65;10.10;;;;;;;15.73;100.00;97650.91;5029148;28;20056;-65
2022/08/31 06:39:53;;;;;;;15.65;9.63;;;;;;;15.61;100.00;97661.31;5027884;28;20077;-66
2022/08/31 06:42:52;;;;;;;20.52;11.50;;;;;;;15.72;100.00;97664.81;5048156;28;20053;-65
2022/08/31 06:45:37;;;;;;;13.70;10.88;;;;;;;15.77;100.00;97672.97;5058785;28;20181;-65
2022/08/31 06:48:22;;;;;;;16.25;11.13;;;;;;;15.81;100.00;97667.81;5069454;28;20567;-66
2022/08/31 06:50:56;;;;;;;13.15;9.70;;;;;;;15.87;100.00;97674.88;5069131;28;20075;-65
2022/08/31 06:53:23;;;;;;;14.15;10.68;;;;;;;15.92;100.00;97666.66;5054021;28;20045;-65
2022/08/31 06:56:24;;;;;;;17.48;10.82;;;;;;;15.95;100.00;97663.41;5045897;28;20059;-65
2022/08/31 06:59:09;;;;;;;13.38;9.52;;;;;;;15.91;100.00;97656.00;5047880;28;19947;-66
2022/08/31 07:02:00;;;;;;;13.68;10.13;;;;;;;15.89;100.00;97655.47;5050067;28;20052;-64
2022/08/31 07:04:32;;;;;;;15.73;10.70;;;;;;;15.93;100.00;97643.72;5047402;28;20041;-65
2022/08/31 07:06:59;;;;;;;12.10;9.30;;;;;;;15.86;100.00;97637.75;5048241;28;20100;-65
2022/08/31 07:09:26;;;;;;;12.88;9.35;;;;;;;15.90;100.00;97632.53;5033869;28;20071;-65
2022/08/31 07:11:53;;;;;;;12.43;9.02;;;;;;;15.93;100.00;97637.44;5044364;28;20037;-65
2022/08/31 07:14:23;;;;;;;11.07;8.48;;;;;;;16.00;100.00;97643.44;5045961;28;20033;-65
2022/08/31 07:16:52;;;;;;;;;;;;;;;15.97;100.00;97644.84;5044852;28;20120;-53
2022/08/31 07:19:20;;;;;;;10.10;7.35;;;;;;;15.96;100.00;97632.25;5047301;28;19920;-56
2022/08/31 07:21:50;;;;;;;12.07;9.20;;;;;;;15.95;100.00;97638.81;5046612;28;20068;-56
2022/08/31 07:24:23;;;;;;;13.73;8.85;;;;;;;15.96;100.00;97645.09;5046871;28;20049;-54
2022/08/31 07:26:53;;;;;;;13.23;9.15;;;;;;;15.97;100.00;97644.84;5047223;28;20045;-52
2022/08/31 07:29:32;;;;;;;11.85;8.75;;;;;;;16.09;100.00;97649.13;5042359;28;20076;-56
2022/08/31 07:31:59;;;;;;;11.45;8.95;;;;;;;16.15;100.00;97639.00;5051935;28;20044;-57
2022/08/31 07:34:29;;;;;;;12.55;8.77;;;;;;;16.20;100.00;97645.25;5028038;28;20049;-54
2022/08/31 07:42:43;;;;;;;10.13;7.18;;;;;;;16.21;100.00;97660.53;5046000;28;20530;-56
2022/08/31 07:45:20;;;;;;;9.68;7.35;;;;;;;16.24;100.00;97661.88;5052232;28;20135;-55
2022/08/31 07:47:50;;;;;;;13.43;8.07;;;;;;;16.31;100.00;97669.75;5066241;28;20072;-56
2022/08/31 07:50:20;;;;;;;10.65;8.18;;;;;;;16.41;100.00;97669.72;5066740;28;20384;-55
2022/08/31 07:52:59;;;;;;;9.82;7.82;;;;;;;16.50;100.00;97667.19;5073656;28;20287;-57
2022/08/31 07:55:55;;;;;;;12.18;8.63;;;;;;;16.66;100.00;97667.09;5046696;28;20439;-52
2022/08/31 07:58:41;;;;;;;10.70;7.95;;;;;;;16.69;100.00;97661.84;5045362;28;20052;-54
2022/08/31 08:01:09;;;;;;;11.07;8.82;;;;;;;16.58;100.00;97660.31;5046315;28;20056;-52
2022/08/31 08:03:42;;;;;;;10.43;8.43;;;;;;;16.55;100.00;97666.34;5046682;28;20131;-56
2022/08/31 08:06:28;;;;;;;13.63;8.80;;;;;;;16.63;100.00;97669.28;5047320;28;20197;-56
2022/08/31 08:09:08;;;;;;;10.05;7.82;;;;;;;16.63;100.00;97657.53;5046280;28;20056;-54
2022/08/31 08:12:03;;;;;;;12.40;9.00;;;;;;;16.66;100.00;97656.94;5051423;28;20055;-50
2022/08/31 08:14:48;;;;;;;11.80;8.75;;;;;;;16.72;100.00;97685.91;5067359;28;20052;-52
2022/08/31 08:17:32;;;;;;;10.15;8.02;;;;;;;16.62;100.00;97680.50;5082517;28;20082;-54
2022/08/31 08:20:04;;;;;;;11.05;7.53;;;;;;;16.60;100.00;97686.25;5067441;28;20049;-54
2022/08/31 08:22:42;;;;;;;13.55;9.40;;;;;;;16.61;100.00;97692.53;5066149;28;20074;-53
2022/08/31 08:25:29;;;;;;;10.48;7.85;;;;;;;16.69;100.00;97682.94;5049579;28;20092;-56
2022/08/31 08:28:06;;;;;;;13.85;9.25;;;;;;;16.77;100.00;97691.31;5046460;28;20052;-57
2022/08/31 08:30:59;;;;;;;12.30;7.45;;;;;;;16.69;100.00;97691.94;5045772;28;20102;-55
2022/08/31 08:33:30;;;;;;;12.10;7.80;;;;;;;16.72;99.21;97699.56;5045908;28;20069;-54
2022/08/31 08:36:03;;;;;;;11.40;8.75;;;;;;;16.85;100.00;97694.56;5045725;28;20049;-54
2022/08/31 08:38:30;;;;;;;10.43;7.10;;;;;;;16.88;98.69;97692.06;5045875;28;20633;-57
2022/08/31 08:41:03;;;;;;;8.68;6.93;;;;;;;16.93;97.96;97688.47;5046369;28;20041;-54
2022/08/31 08:43:33;;;;;;;10.23;7.18;;;;;;;16.94;97.07;97686.53;5062304;28;20044;-54
2022/08/31 08:46:03;;;;;;;11.10;7.57;;;;;;;16.92;96.20;97689.59;5064383;28;20059;-52
2022/08/31 08:48:51;;;;;;;10.32;7.47;;;;;;;17.02;97.17;97689.50;5065133;28;20691;-55
2022/08/31 08:51:30;;;;;;;8.45;6.40;;;;;;;16.94;93.59;97692.84;5082591;28;20223;-55
2022/08/31 08:54:08;;;;;;;11.27;7.43;;;;;;;16.94;95.84;97695.56;5047500;28;20114;-53
2022/08/31 08:56:40;;;;;;;9.85;7.15;;;;;;;16.89;95.61;97701.09;5045207;28;20468;-56
2022/08/31 08:59:11;;;;;;;9.98;6.72;;;;;;;16.91;95.81;97698.88;5044536;28;20045;-55
2022/08/31 09:01:48;;;;;;;12.20;8.23;;;;;;;17.09;100.00;97696.56;5025177;28;20161;-51
2022/08/31 09:04:48;;;;;;;10.88;7.20;;;;;;;17.05;97.77;97703.72;5025757;28;20103;-53
2022/08/31 09:07:55;;;;;;;9.60;7.25;;;;;;;17.12;96.37;97715.16;5026431;28;20187;-51
2022/08/31 09:10:44;;;;;;;9.00;7.50;;;;;;;17.08;95.59;97712.19;5025524;28;20045;-50
2022/08/31 09:13:35;;;;;;;9.40;6.78;;;;;;;17.06;99.67;97717.13;5053230;28;20087;-55
2022/08/31 09:16:16;;;;;;;10.38;7.60;;;;;;;17.13;97.06;97706.66;5058390;28;20504;-53
2022/08/31 09:18:59;;;;;;;8.93;6.77;;;;;;;17.36;98.01;97711.66;5042027;28;20140;-50
2022/08/31 09:21:33;;;;;;;10.60;7.40;;;;;;;17.37;96.42;97711.38;5041348;28;20838;-52
2022/08/31 09:24:06;;;;;;;11.23;7.68;;;;;;;17.32;96.40;97716.88;5027338;28;20064;-53
2022/08/31 09:27:19;;;;;;;10.05;7.47;;;;;;;17.25;94.79;97719.97;5025917;28;20057;-53
2022/08/31 09:29:53;;;;;;;11.45;7.57;;;;;;;17.21;96.85;97718.09;5026256;28;20566;-52
2022/08/31 09:32:25;;;;;;;10.57;7.70;;;;;;;17.34;98.05;97719.34;5026372;28;20033;-57
2022/08/31 09:35:00;;;;;;;10.50;7.28;;;;;;;17.48;97.71;97714.84;5026494;28;20077;-56
2022/08/31 09:37:32;;;;;;;11.18;8.10;;;;;;;17.61;98.43;97718.81;5026301;28;20041;-54
2022/08/31 09:40:19;;;;;;;11.10;7.85;;;;;;;17.49;93.40;97718.38;5026092;28;20041;-59
2022/08/31 09:43:04;;;;;;;12.77;8.63;;;;;;;17.72;94.49;97721.44;5048686;28;20044;-55
2022/08/31 09:45:35;;;;;;;12.00;8.00;;;;;;;17.62;92.53;97711.41;5063782;28;20075;-56
2022/08/31 09:48:08;;;;;;;11.27;8.75;;;;;;;17.70;93.48;97715.44;5055708;28;20045;-53
2022/08/31 09:50:44;;;;;;;11.85;9.02;;;;;;;17.64;95.07;97720.16;5045799;28;20556;-53
2022/08/31 09:56:14;;;;;;;13.38;9.30;;;;;;;17.82;95.16;97710.38;5046269;28;20060;-52
2022/08/31 09:58:50;;;;;;;11.77;9.35;;;;;;;17.83;94.75;97711.19;5044611;28;20069;-56
2022/08/31 10:01:16;;;;;;;15.50;9.98;;;;;;;17.88;95.69;97714.66;5046346;28;20107;-56
2022/08/31 10:03:44;;;;;;;11.23;9.25;;;;;;;17.93;93.59;97711.06;5045545;28;20048;-54
2022/08/31 10:06:40;;;;;;;13.43;8.35;;;;;;;18.29;91.67;97715.31;5046120;28;20044;-54
2022/08/31 10:09:16;;;;;;;13.82;7.20;;;;;;;18.42;86.26;97714.59;5046042;28;20048;-57
2022/08/31 10:11:46;;;;;;;11.43;7.35;;;;;;;18.24;83.38;97729.88;5048052;28;20041;-48
2022/08/31 10:14:35;;;;;;;10.85;7.50;;;;;;;18.13;83.89;97731.16;5042499;28;20460;-52
2022/08/31 10:17:14;;;;;;;9.23;7.68;;;;;;;18.06;85.59;97726.00;5036859;28;20045;-47
2022/08/31 10:20:04;;;;;;;11.50;8.00;;;;;;;18.19;87.49;97725.31;5037535;28;20045;-47
2022/08/31 10:22:44;;;;;;;11.65;8.70;;;;;;;18.20;87.43;97723.38;5044721;28;20045;-50
2022/08/31 10:25:20;;;;;;;10.80;8.20;;;;;;;18.30;85.08;97719.69;5042034;28;20049;-50
2022/08/31 10:27:54;;;;;;;10.75;8.15;;;;;;;18.55;90.75;97725.94;5038526;28;20044;-48
2022/08/31 10:30:27;;;;;;;11.73;8.18;;;;;;;18.34;85.85;97720.72;5045591;28;20049;-47
2022/08/31 10:33:01;;;;;;;12.52;8.77;;;;;;;18.38;90.41;97720.94;5046109;28;20040;-46
2022/08/31 10:35:39;;;;;;;13.95;8.90;;;;;;;18.51;90.30;97727.63;5043240;28;20049;-50
2022/08/31 10:38:20;;;;;;;10.30;7.53;;;;;;;18.81;87.68;97722.81;5039983;28;20041;-53
2022/08/31 10:41:12;;;;;;;10.50;6.97;;;;;;;18.99;80.77;97726.66;5034194;28;20107;-52
2022/08/31 10:43:57;;;;;;;8.43;7.03;;;;;;;19.16;81.52;97719.84;5025329;28;20061;-66
2022/08/31 10:46:24;;;;;;;9.25;6.38;;;;;;;19.26;79.31;97719.66;5047421;28;20100;-65
2022/08/31 10:48:53;;;;;;;9.85;7.25;;;;;;;19.29;77.39;97726.47;5036566;28;20063;-66
2022/08/31 10:51:38;;;;;;;12.25;6.60;;;;;;;19.06;75.97;97720.81;5039155;28;20060;-65
2022/08/31 10:54:27;;;;;;;10.38;6.53;;;;;;;18.92;78.53;97727.03;5028718;28;20393;-66
2022/08/31 10:57:28;;;;;;;10.93;6.60;;;;;;;19.04;76.32;97718.34;5038189;28;20099;-65
2022/08/31 10:59:57;;;;;;;9.45;6.32;;;;;;;18.91;79.42;97716.38;5047494;28;20052;-66
2022/08/31 11:02:38;;;;;;;10.50;6.22;;;;;;;18.98;77.11;97719.53;5049126;28;20045;-65
2022/08/31 11:05:31;;;;;;;9.10;6.45;;;;;;;19.35;77.54;97720.59;5049098;28;20041;-65
2022/08/31 11:08:11;;;;;;;10.35;6.18;;;;;;;19.32;75.12;97725.88;5049263;28;20091;-66
2022/08/31 11:10:51;;;;;;;8.55;5.57;;;;;;;19.39;77.04;97726.31;5049213;28;20542;-65
2022/08/31 11:13:52;;;;;;;10.40;6.78;;;;;;;19.11;75.20;97720.72;5049251;28;20037;-65
2022/08/31 11:16:44;;;;;;;9.73;6.70;;;;;;;19.28;77.83;97724.84;5063515;28;20523;-66
2022/08/31 11:19:25;;;;;;;;;;;;;;;19.44;75.88;97717.16;5068940;28;20123;-65
2022/08/31 11:22:27;;;;;;;9.70;6.70;;;;;;;19.27;76.15;97713.03;5068668;28;19928;-65
2022/08/31 11:25:13;;;;;;;9.75;6.72;;;;;;;19.41;72.54;97720.50;5055817;28;20520;-66
2022/08/31 11:28:01;;;;;;;9.60;6.75;;;;;;;19.47;71.95;97711.06;5048192;28;20041;-65
2022/08/31 11:30:31;;;;;;;8.95;5.93;;;;;;;19.56;73.54;97716.66;5048692;28;20249;-65
2022/08/31 11:33:06;;;;;;;11.02;6.18;;;;;;;19.50;73.10;97716.75;5048494;28;20302;-65
2022/08/31 11:36:01;;;;;;;10.82;5.70;;;;;;;19.42;73.15;97717.44;5048415;28;20514;-66
2022/08/31 11:38:46;;;;;;;10.25;6.32;;;;;;;19.28;75.43;97719.34;5048085;28;20045;-65
2022/08/31 11:41:47;;;;;;;9.55;7.00;;;;;;;19.03;74.93;97722.19;5048844;28;20044;-65
2022/08/31 11:44:28;;;;;;;9.98;6.43;;;;;;;18.52;76.62;97718.28;5047646;28;20098;-65
2022/08/31 11:47:01;;;;;;;;;;;;;;;18.54;77.30;97719.63;5046358;28;20041;-65
2022/08/31 11:49:37;;;;;;;8.45;5.53;;;;;;;18.68;78.78;97714.22;5042088;28;19991;-65
2022/08/31 11:52:13;;;;;;;8.20;6.00;;;;;;;18.73;76.29;97713.34;5043312;28;20094;-66
2022/08/31 11:54:42;;;;;;;8.93;6.40;;;;;;;18.82;77.15;97717.03;5048096;28;20075;-65
2022/08/31 11:57:14;;;;;;;10.93;6.57;;;;;;;18.83;77.13;97712.34;5047520;28;20263;-65
2022/08/31 11:59:45;;;;;;;15.20;7.78;;;;;;;18.84;78.17;97709.31;5047474;28;20045;-65
2022/08/31 12:02:24;;;;;;;7.30;5.63;;;;;;;18.95;75.93;97707.22;5047718;28;20064;-65
2022/08/31 12:04:51;;;;;;;8.85;6.43;;;;;;;18.89;76.25;97702.94;5046845;28;20040;-65
2022/08/31 12:07:27;;;;;;;9.57;6.50;;;;;;;18.65;77.60;97703.84;5047831;28;20127;-65
2022/08/31 12:10:02;;;;;;;8.68;6.55;;;;;;;18.67;77.81;97695.31;5038793;28;20042;-64